Time;durP1;ratioP1;P1;durP2;ratioP2;P2;SDS_P1;SDS_P2;PMS_P1;PMS_P2;Temp;Humidity;BMP_temperature;BMP_pressure;BME280_temperature;BME280_humidity;BME280_pressure;Samples;Min_cycle;Max_cycle;Signal;HPM_P1;HPM_P2
2023/09/28 00:01:22;;;;;;;470.08;111.25;;;;;;;;;;5035485;28;20366;-53
2023/09/28 00:03:48;;;;;;;517.47;113.97;;;;;;;;;;5033380;28;20029;-54
2023/09/28 00:06:13;;;;;;;450.42;108.57;;;;;;;;;;5034266;28;20069;-54
2023/09/28 00:08:39;;;;;;;474.73;111.88;;;;;;;;;;5034908;28;20102;-54
2023/09/28 00:11:05;;;;;;;405.88;112.95;;;;;;;;;;5033889;28;20414;-53
2023/09/28 00:13:30;;;;;;;407.40;110.70;;;;;;;;;;5035240;28;20028;-53
2023/09/28 00:15:56;;;;;;;553.53;120.30;;;;;;;;;;5033584;28;20040;-53
2023/09/28 00:18:21;;;;;;;432.83;114.35;;;;;;;;;;5035344;28;20052;-52
2023/09/28 00:20:47;;;;;;;506.95;116.68;;;;;;;;;;5033639;28;20032;-52
2023/09/28 00:23:12;;;;;;;472.73;115.60;;;;;;;;;;5033962;28;20021;-53
2023/09/28 00:25:37;;;;;;;484.10;116.28;;;;;;;;;;5034199;28;20041;-53
2023/09/28 00:28:05;;;;;;;414.67;114.95;;;;;;;;;;5034319;28;20024;-52
2023/09/28 00:30:30;;;;;;;490.10;118.70;;;;;;;;;;5033905;28;20259;-53
2023/09/28 00:32:56;;;;;;;552.07;122.77;;;;;;;;;;5034659;28;20155;-52
2023/09/28 00:35:22;;;;;;;428.80;119.75;;;;;;;;;;5034317;28;20311;-54
2023/09/28 00:37:48;;;;;;;476.65;117.68;;;;;;;;;;5034023;28;20399;-52
2023/09/28 00:40:21;;;;;;;400.20;114.28;;;;;;;;;;5034765;28;20092;-53
2023/09/28 00:42:47;;;;;;;530.83;121.65;;;;;;;;;;5033113;28;20078;-53
2023/09/28 00:45:13;;;;;;;399.60;115.22;;;;;;;;;;5033232;28;20521;-53
2023/09/28 00:47:38;;;;;;;423.95;114.00;;;;;;;;;;5034258;28;20021;-52
2023/09/28 00:50:09;;;;;;;484.10;116.50;;;;;;;;;;5032774;28;20111;-53
2023/09/28 00:52:34;;;;;;;452.83;114.57;;;;;;;;;;5033320;28;20393;-52
2023/09/28 00:54:59;;;;;;;479.13;118.45;;;;;;;;;;5033088;28;20100;-52
2023/09/28 00:57:26;;;;;;;532.72;120.57;;;;;;;;;;5033495;28;20454;-52
2023/09/28 00:59:52;;;;;;;500.80;117.30;;;;;;;;;;5034422;28;20064;-53
2023/09/28 01:02:18;;;;;;;414.48;110.22;;;;;;;;;;5034881;28;20415;-55
2023/09/28 01:04:43;;;;;;;506.60;116.65;;;;;;;;;;5034175;28;20499;-54
2023/09/28 01:07:11;;;;;;;456.60;112.23;;;;;;;;;;5034152;28;20039;-54
2023/09/28 01:09:36;;;;;;;465.90;107.25;;;;;;;;;;5034089;28;20680;-54
2023/09/28 01:12:04;;;;;;;578.07;116.03;;;;;;;;;;5032876;28;20629;-53
2023/09/28 01:14:30;;;;;;;425.73;107.85;;;;;;;;;;5034527;28;20600;-54
2023/09/28 01:16:58;;;;;;;488.17;114.13;;;;;;;;;;5033021;28;20374;-54
2023/09/28 01:19:23;;;;;;;406.75;108.78;;;;;;;;;;5034757;28;20029;-53
2023/09/28 01:21:50;;;;;;;492.70;113.87;;;;;;;;;;5033124;28;20025;-52
2023/09/28 01:24:16;;;;;;;425.63;110.63;;;;;;;;;;5035042;28;20260;-53
2023/09/28 01:26:41;;;;;;;476.77;113.97;;;;;;;;;;5034145;28;20036;-52
2023/09/28 01:29:06;;;;;;;438.40;111.47;;;;;;;;;;5033930;28;20413;-52
2023/09/28 01:31:32;;;;;;;456.57;112.67;;;;;;;;;;5036647;28;20282;-53
2023/09/28 01:33:58;;;;;;;581.30;118.85;;;;;;;;;;5035794;28;21002;-52
2023/09/28 01:36:23;;;;;;;472.20;113.32;;;;;;;;;;5037212;28;20490;-53
2023/09/28 01:38:50;;;;;;;444.83;113.20;;;;;;;;;;5036674;28;20508;-53
2023/09/28 01:41:15;;;;;;;458.08;112.93;;;;;;;;;;5036872;28;20295;-53
2023/09/28 01:43:40;;;;;;;455.55;115.70;;;;;;;;;;5036594;28;20029;-52
2023/09/28 01:46:05;;;;;;;443.70;112.00;;;;;;;;;;5036303;28;20041;-54
2023/09/28 01:48:31;;;;;;;458.50;112.82;;;;;;;;;;5036829;28;20119;-54
2023/09/28 01:50:56;;;;;;;509.77;115.75;;;;;;;;;;5036736;28;20033;-54
2023/09/28 01:53:21;;;;;;;432.90;109.85;;;;;;;;;;5036972;28;20021;-55
2023/09/28 01:55:47;;;;;;;535.70;116.88;;;;;;;;;;5034790;28;20583;-54
2023/09/28 01:58:12;;;;;;;428.05;110.82;;;;;;;;;;5038048;28;20349;-54
2023/09/28 02:00:38;;;;;;;503.85;116.07;;;;;;;;;;5037115;28;20040;-54
2023/09/28 02:03:04;;;;;;;586.38;120.00;;;;;;;;;;5036055;28;20506;-55
2023/09/28 02:05:32;;;;;;;451.90;113.90;;;;;;;;;;5036129;28;20048;-55
2023/09/28 02:07:58;;;;;;;448.83;115.47;;;;;;;;;;5036033;28;20328;-54
2023/09/28 02:10:23;;;;;;;456.05;114.97;;;;;;;;;;5036693;28;20409;-54
2023/09/28 02:12:48;;;;;;;530.40;118.20;;;;;;;;;;5036029;28;20056;-55
2023/09/28 02:15:16;;;;;;;446.42;114.32;;;;;;;;;;5035505;28;20036;-55
2023/09/28 02:17:44;;;;;;;479.08;115.47;;;;;;;;;;5036624;28;20028;-53
2023/09/28 02:20:10;;;;;;;435.73;114.00;;;;;;;;;;5035872;28;20029;-53
2023/09/28 02:22:36;;;;;;;446.73;113.70;;;;;;;;;;5036047;28;20192;-52
2023/09/28 02:25:02;;;;;;;495.00;117.03;;;;;;;;;;5035416;28;20017;-55
2023/09/28 02:27:28;;;;;;;433.13;114.43;;;;;;;;;;5035673;28;20116;-56
2023/09/28 02:29:53;;;;;;;498.70;115.70;;;;;;;;;;5035540;28;20469;-55
2023/09/28 02:32:18;;;;;;;477.87;116.13;;;;;;;;;;5035639;28;20078;-54
2023/09/28 02:34:44;;;;;;;448.73;115.20;;;;;;;;;;5036049;28;20346;-53
2023/09/28 02:37:09;;;;;;;457.83;116.70;;;;;;;;;;5033966;28;20787;-53
2023/09/28 02:39:35;;;;;;;423.30;113.43;;;;;;;;;;5036399;28;20657;-53
2023/09/28 02:42:07;;;;;;;506.85;101.43;;;;;;;;;;5034389;28;20259;-53
2023/09/28 02:44:33;;;;;;;454.52;103.65;;;;;;;;;;5035683;28;20029;-54
2023/09/28 02:46:58;;;;;;;522.10;108.95;;;;;;;;;;5035487;28;20035;-53
2023/09/28 02:49:23;;;;;;;440.23;106.57;;;;;;;;;;5018099;28;20025;-54
2023/09/28 02:51:50;;;;;;;436.58;106.68;;;;;;;;;;5035344;28;20103;-55
2023/09/28 02:54:15;;;;;;;397.42;105.07;;;;;;;;;;5035701;28;20348;-55
2023/09/28 02:56:41;;;;;;;415.27;106.43;;;;;;;;;;5035469;28;20166;-54
2023/09/28 02:59:08;;;;;;;539.95;112.82;;;;;;;;;;5034649;28;20024;-54
2023/09/28 03:01:33;;;;;;;404.52;106.72;;;;;;;;;;5033708;28;20052;-53
2023/09/28 03:04:00;;;;;;;487.08;111.28;;;;;;;;;;5034186;28;20368;-53
2023/09/28 03:06:25;;;;;;;471.20;109.75;;;;;;;;;;5034584;28;20455;-53
2023/09/28 03:08:51;;;;;;;450.40;109.90;;;;;;;;;;5033891;28;20155;-53
2023/09/28 03:11:16;;;;;;;422.17;108.72;;;;;;;;;;5034732;28;20048;-54
2023/09/28 03:13:42;;;;;;;522.05;111.63;;;;;;;;;;5034410;28;20323;-53
2023/09/28 03:16:07;;;;;;;462.08;110.45;;;;;;;;;;5034504;28;20604;-53
2023/09/28 03:18:32;;;;;;;407.52;107.85;;;;;;;;;;5035751;28;20032;-54
2023/09/28 03:20:58;;;;;;;592.88;116.43;;;;;;;;;;5033730;28;20036;-54
2023/09/28 03:23:23;;;;;;;445.85;110.43;;;;;;;;;;5036099;28;20025;-54
2023/09/28 03:25:48;;;;;;;436.02;109.75;;;;;;;;;;5017298;28;20040;-54
2023/09/28 03:28:13;;;;;;;446.40;111.77;;;;;;;;;;5034552;28;20167;-52
2023/09/28 03:30:39;;;;;;;462.10;110.82;;;;;;;;;;5034568;28;20835;-53
2023/09/28 03:33:04;;;;;;;584.70;116.57;;;;;;;;;;5033304;28;20013;-54
2023/09/28 03:35:29;;;;;;;464.42;105.20;;;;;;;;;;5033391;28;20044;-54
2023/09/28 03:37:57;;;;;;;493.83;99.97;;;;;;;;;;5033848;28;20051;-53
2023/09/28 03:40:22;;;;;;;437.60;99.45;;;;;;;;;;5035190;28;20021;-54
2023/09/28 03:42:48;;;;;;;461.77;103.93;;;;;;;;;;5034237;28;20020;-55
2023/09/28 03:45:15;;;;;;;405.20;101.25;;;;;;;;;;5032535;28;20461;-52
2023/09/28 03:47:41;;;;;;;419.95;102.72;;;;;;;;;;5034537;28;20104;-53
2023/09/28 03:50:12;;;;;;;530.70;108.22;;;;;;;;;;5032775;28;20029;-54
2023/09/28 03:52:38;;;;;;;398.90;103.72;;;;;;;;;;5033640;28;20541;-52
2023/09/28 03:55:24;;;;;;;492.42;100.80;;;;;;;;;;5033489;28;20029;-53
2023/09/28 03:57:50;;;;;;;409.52;101.10;;;;;;;;;;5032560;28;20250;-53
2023/09/28 04:00:17;;;;;;;424.98;102.13;;;;;;;;;;5032473;28;20013;-54
2023/09/28 04:02:46;;;;;;;465.15;104.00;;;;;;;;;;5034066;28;20433;-54
2023/09/28 04:05:12;;;;;;;510.95;107.20;;;;;;;;;;5032438;28;20163;-53
2023/09/28 04:07:39;;;;;;;425.50;104.13;;;;;;;;;;5034193;28;20281;-53
2023/09/28 04:10:04;;;;;;;569.28;113.20;;;;;;;;;;5032877;28;20013;-53
2023/09/28 04:12:30;;;;;;;432.77;106.57;;;;;;;;;;5033728;28;20029;-53
2023/09/28 04:14:55;;;;;;;412.65;105.40;;;;;;;;;;5033514;28;20402;-53
2023/09/28 04:17:20;;;;;;;454.45;106.82;;;;;;;;;;5034197;28;20029;-53
2023/09/28 04:19:46;;;;;;;428.85;105.90;;;;;;;;;;5035215;28;20031;-53
2023/09/28 04:22:11;;;;;;;525.70;109.07;;;;;;;;;;5033399;28;20048;-53
2023/09/28 04:24:36;;;;;;;486.55;98.68;;;;;;;;;;5033670;28;20017;-55
2023/09/28 04:27:02;;;;;;;467.58;99.20;;;;;;;;;;5032253;28;20033;-54
2023/09/28 04:29:27;;;;;;;417.15;99.13;;;;;;;;;;5033613;28;20043;-55
2023/09/28 04:31:54;;;;;;;409.27;99.10;;;;;;;;;;5016033;28;20532;-55
2023/09/28 04:34:19;;;;;;;426.70;100.05;;;;;;;;;;5034321;28;20275;-54
2023/09/28 04:36:45;;;;;;;395.13;100.13;;;;;;;;;;5035596;28;20032;-53
2023/09/28 04:39:10;;;;;;;548.72;105.50;;;;;;;;;;5033477;28;20378;-55
2023/09/28 04:41:39;;;;;;;440.58;102.90;;;;;;;;;;5034640;28;20037;-54
2023/09/28 04:44:05;;;;;;;472.92;105.60;;;;;;;;;;5033201;28;20024;-55
2023/09/28 04:46:30;;;;;;;476.60;106.40;;;;;;;;;;5034276;28;20052;-54
2023/09/28 04:48:56;;;;;;;393.13;103.38;;;;;;;;;;5033571;28;20070;-57
2023/09/28 04:51:22;;;;;;;373.40;103.93;;;;;;;;;;5034393;28;20033;-54
2023/09/28 04:53:47;;;;;;;449.80;106.47;;;;;;;;;;5034273;28;20282;-54
2023/09/28 04:56:12;;;;;;;511.90;99.82;;;;;;;;;;5033889;28;20033;-53
2023/09/28 04:58:38;;;;;;;428.67;97.47;;;;;;;;;;5034880;28;20021;-55
2023/09/28 05:01:04;;;;;;;521.63;103.03;;;;;;;;;;5033208;28;20040;-54
2023/09/28 05:03:30;;;;;;;449.50;102.10;;;;;;;;;;5034688;28;20028;-54
2023/09/28 05:05:55;;;;;;;384.58;100.40;;;;;;;;;;5039200;28;20029;-54
2023/09/28 05:08:21;;;;;;;382.38;101.75;;;;;;;;;;5039252;28;20017;-56
2023/09/28 05:10:46;;;;;;;467.52;105.45;;;;;;;;;;5037977;28;20045;-55
2023/09/28 05:13:12;;;;;;;524.42;110.57;;;;;;;;;;5037133;28;20017;-54
2023/09/28 05:15:37;;;;;;;484.38;108.35;;;;;;;;;;5038568;28;20044;-55
2023/09/28 05:18:03;;;;;;;509.13;110.13;;;;;;;;;;5038416;28;20544;-55
2023/09/28 05:20:28;;;;;;;403.85;105.90;;;;;;;;;;5038582;28;20040;-55
2023/09/28 05:22:54;;;;;;;447.13;106.20;;;;;;;;;;5038122;28;20193;-54
2023/09/28 05:25:20;;;;;;;414.27;107.15;;;;;;;;;;5037854;28;20826;-54
2023/09/28 05:27:45;;;;;;;391.20;105.57;;;;;;;;;;5020561;28;20040;-54
2023/09/28 05:30:10;;;;;;;521.55;111.82;;;;;;;;;;5037076;28;20548;-55
2023/09/28 05:32:36;;;;;;;435.88;106.40;;;;;;;;;;5037461;28;20116;-54
2023/09/28 05:35:01;;;;;;;426.80;108.82;;;;;;;;;;5038544;28;20024;-54
2023/09/28 05:37:26;;;;;;;385.65;105.10;;;;;;;;;;5038452;28;20119;-55
2023/09/28 05:39:52;;;;;;;441.90;106.27;;;;;;;;;;5038573;28;20047;-55
2023/09/28 05:42:17;;;;;;;372.13;104.30;;;;;;;;;;5037410;28;20279;-55
2023/09/28 05:44:42;;;;;;;431.65;106.47;;;;;;;;;;5037807;28;20280;-55
2023/09/28 05:47:08;;;;;;;498.20;110.10;;;;;;;;;;5036012;28;20029;-55
2023/09/28 05:49:33;;;;;;;429.13;104.78;;;;;;;;;;5038198;28;20017;-55
2023/09/28 05:51:58;;;;;;;430.77;105.20;;;;;;;;;;5036393;28;20100;-55
2023/09/28 05:54:26;;;;;;;503.90;107.07;;;;;;;;;;5036813;28;20025;-54
2023/09/28 05:56:51;;;;;;;436.60;103.80;;;;;;;;;;5036468;28;20024;-54
2023/09/28 05:59:16;;;;;;;535.80;106.85;;;;;;;;;;5035542;28;20390;-56
2023/09/28 06:01:42;;;;;;;479.63;100.37;;;;;;;;;;5036181;28;20041;-56
2023/09/28 06:04:08;;;;;;;555.80;104.88;;;;;;;;;;5035475;28;20267;-55
2023/09/28 06:06:33;;;;;;;433.60;97.32;;;;;;;;;;5036724;28;20180;-55
2023/09/28 06:08:58;;;;;;;481.55;100.10;;;;;;;;;;5035090;28;20021;-56
2023/09/28 06:11:23;;;;;;;338.97;94.33;;;;;;;;;;5035447;28;20398;-56
2023/09/28 06:13:49;;;;;;;421.50;96.67;;;;;;;;;;5038571;28;20259;-55
2023/09/28 06:16:15;;;;;;;588.88;105.25;;;;;;;;;;5035006;28;20415;-54
2023/09/28 06:18:41;;;;;;;416.52;96.50;;;;;;;;;;5037828;28;20032;-53
2023/09/28 06:21:06;;;;;;;502.88;93.22;;;;;;;;;;5035120;28;20098;-54
2023/09/28 06:23:32;;;;;;;399.90;73.35;;;;;;;;;;5034913;28;20013;-54
2023/09/28 06:25:57;;;;;;;322.90;68.03;;;;;;;;;;5034390;28;20037;-56
2023/09/28 06:28:26;;;;;;;367.10;79.25;;;;;;;;;;5016722;28;20025;-55
2023/09/28 06:30:54;;;;;;;442.55;78.60;;;;;;;;;;5033816;28;20214;-55
2023/09/28 06:33:20;;;;;;;444.02;83.90;;;;;;;;;;5034837;28;20021;-55
2023/09/28 06:35:45;;;;;;;409.40;83.40;;;;;;;;;;5035917;28;20037;-56
2023/09/28 06:38:11;;;;;;;470.95;86.50;;;;;;;;;;5035279;28;20028;-54
2023/09/28 06:40:38;;;;;;;407.10;83.78;;;;;;;;;;5034364;28;20047;-55
2023/09/28 06:43:03;;;;;;;400.70;83.60;;;;;;;;;;5034393;28;20259;-54
2023/09/28 06:45:28;;;;;;;466.85;85.95;;;;;;;;;;5033929;28;20032;-56
2023/09/28 06:47:54;;;;;;;362.15;81.75;;;;;;;;;;5036127;28;20012;-55
2023/09/28 06:50:20;;;;;;;470.23;87.47;;;;;;;;;;5016208;28;20021;-56
2023/09/28 06:52:45;;;;;;;445.33;84.63;;;;;;;;;;5034309;28;20021;-55
2023/09/28 06:55:10;;;;;;;405.93;83.10;;;;;;;;;;5035431;28;20021;-56
2023/09/28 06:57:36;;;;;;;369.27;82.37;;;;;;;;;;5035873;28;20919;-54
2023/09/28 07:00:06;;;;;;;399.40;82.27;;;;;;;;;;5036480;28;20275;-55
2023/09/28 07:02:31;;;;;;;332.15;77.65;;;;;;;;;;5031011;28;20048;-55
2023/09/28 07:04:56;;;;;;;298.00;74.63;;;;;;;;;;5038955;28;20009;-56
2023/09/28 07:07:22;;;;;;;385.63;113.50;;;;;;;;;;5036852;28;20395;-55
2023/09/28 07:09:47;;;;;;;265.13;66.97;;;;;;;;;;5039450;28;20021;-55
2023/09/28 07:12:13;;;;;;;319.60;65.15;;;;;;;;;;5038874;28;20284;-56
2023/09/28 07:14:38;;;;;;;299.10;61.33;;;;;;;;;;5040007;28;20033;-55
2023/09/28 07:17:03;;;;;;;284.43;58.60;;;;;;;;;;5038144;28;20510;-55
2023/09/28 07:19:28;;;;;;;185.70;50.43;;;;;;;;;;5039857;28;20259;-56
2023/09/28 07:21:54;;;;;;;231.97;47.20;;;;;;;;;;5038598;28;20735;-55
2023/09/28 07:24:19;;;;;;;410.10;55.20;;;;;;;;;;5036929;28;20259;-55
2023/09/28 07:26:46;;;;;;;257.40;56.00;;;;;;;;;;5037661;28;20285;-57
2023/09/28 07:29:11;;;;;;;439.67;155.00;;;;;;;;;;5036522;28;20223;-55
2023/09/28 07:31:36;;;;;;;415.90;205.93;;;;;;;;;;5022300;28;20029;-57
2023/09/28 07:34:02;;;;;;;250.27;47.67;;;;;;;;;;5039303;28;20019;-56
2023/09/28 07:36:27;;;;;;;261.50;47.42;;;;;;;;;;5036637;28;20538;-56
2023/09/28 07:38:53;;;;;;;292.27;48.90;;;;;;;;;;5040264;28;20188;-56
2023/09/28 07:41:18;;;;;;;375.77;88.82;;;;;;;;;;5037021;28;20037;-54
2023/09/28 07:43:44;;;;;;;314.47;144.10;;;;;;;;;;5038866;28;20041;-55
2023/09/28 07:46:09;;;;;;;356.87;48.53;;;;;;;;;;5035862;28;20784;-56
2023/09/28 07:48:34;;;;;;;291.92;119.90;;;;;;;;;;5038896;28;20079;-57
2023/09/28 07:51:01;;;;;;;255.20;99.55;;;;;;;;;;5037685;28;20110;-56
2023/09/28 07:53:26;;;;;;;207.55;35.15;;;;;;;;;;5036720;28;20020;-58
2023/09/28 07:55:51;;;;;;;218.50;47.57;;;;;;;;;;5038954;28;20059;-56
2023/09/28 07:58:17;;;;;;;234.80;28.60;;;;;;;;;;5039453;28;20074;-58
2023/09/28 08:00:42;;;;;;;308.80;117.03;;;;;;;;;;5038778;28;20449;-57
2023/09/28 08:03:07;;;;;;;358.95;130.43;;;;;;;;;;5038313;28;20263;-57
2023/09/28 08:05:33;;;;;;;299.83;158.52;;;;;;;;;;5021407;28;20036;-56
2023/09/28 08:07:58;;;;;;;323.17;114.20;;;;;;;;;;5021441;28;20017;-56
2023/09/28 08:10:23;;;;;;;325.53;81.87;;;;;;;;;;5038271;28;20103;-56
2023/09/28 08:12:48;;;;;;;401.20;249.60;;;;;;;;;;5040192;28;20132;-56
2023/09/28 08:15:15;;;;;;;620.90;331.67;;;;;;;;;;5038775;28;20017;-57
2023/09/28 08:17:44;;;;;;;301.42;129.90;;;;;;;;;;5040051;28;20505;-57
2023/09/28 08:20:09;;;;;;;439.25;346.92;;;;;;;;;;5037464;28;20737;-55
2023/09/28 08:22:35;;;;;;;270.15;98.30;;;;;;;;;;5038740;28;20114;-56
2023/09/28 08:25:01;;;;;;;369.65;260.77;;;;;;;;;;5040162;28;20347;-57
2023/09/28 08:27:26;;;;;;;249.75;94.95;;;;;;;;;;5037161;28;20557;-57
2023/09/28 08:29:51;;;;;;;433.33;237.60;;;;;;;;;;5039319;28;20036;-58
2023/09/28 08:32:17;;;;;;;314.20;138.57;;;;;;;;;;5039621;28;20040;-58
2023/09/28 08:34:42;;;;;;;440.90;337.80;;;;;;;;;;5039590;28;20024;-57
2023/09/28 08:37:08;;;;;;;542.03;422.47;;;;;;;;;;5038005;28;20649;-56
2023/09/28 08:39:34;;;;;;;438.33;321.52;;;;;;;;;;5037883;28;20352;-58
2023/09/28 08:42:04;;;;;;;356.42;238.50;;;;;;;;;;5039383;28;20112;-55
2023/09/28 08:44:31;;;;;;;394.85;194.90;;;;;;;;;;5036427;28;20159;-56
2023/09/28 08:46:57;;;;;;;310.48;155.40;;;;;;;;;;5038162;28;20440;-58
2023/09/28 08:49:25;;;;;;;611.78;309.90;;;;;;;;;;5036463;28;20052;-56
2023/09/28 08:51:51;;;;;;;523.70;252.70;;;;;;;;;;5037384;28;20486;-57
2023/09/28 08:54:17;;;;;;;682.30;268.17;;;;;;;;;;5035720;28;20681;-54
2023/09/28 08:56:42;;;;;;;517.47;244.32;;;;;;;;;;5035859;28;20443;-56
2023/09/28 08:59:11;;;;;;;533.97;288.92;;;;;;;;;;5037871;28;20436;-56
2023/09/28 09:01:37;;;;;;;549.17;353.63;;;;;;;;;;5037482;28;20075;-57
2023/09/28 09:04:03;;;;;;;579.90;380.58;;;;;;;;;;5023557;28;20052;-55
2023/09/28 09:06:29;;;;;;;665.42;264.52;;;;;;;;;;5036012;28;20545;-57
2023/09/28 09:09:00;;;;;;;531.30;307.27;;;;;;;;;;5038113;28;20479;-56
2023/09/28 09:11:25;;;;;;;753.23;300.13;;;;;;;;;;5035890;28;20044;-57
2023/09/28 09:13:51;;;;;;;578.70;369.52;;;;;;;;;;5036374;28;20272;-55
2023/09/28 09:16:17;;;;;;;655.67;387.77;;;;;;;;;;5017618;28;20036;-55
2023/09/28 09:18:43;;;;;;;493.85;241.85;;;;;;;;;;5037878;28;20140;-55
2023/09/28 09:21:08;;;;;;;535.40;297.33;;;;;;;;;;5019788;28;20040;-56
2023/09/28 09:23:33;;;;;;;528.57;284.67;;;;;;;;;;5036226;28;20028;-57
2023/09/28 09:25:58;;;;;;;407.93;142.37;;;;;;;;;;5036803;28;20520;-58
2023/09/28 09:28:28;;;;;;;583.35;202.88;;;;;;;;;;5036415;28;20358;-57
2023/09/28 09:30:55;;;;;;;611.72;472.85;;;;;;;;;;5037148;28;20026;-54
2023/09/28 09:33:21;;;;;;;671.38;440.17;;;;;;;;;;5019099;28;20024;-57
2023/09/28 09:35:46;;;;;;;619.85;355.05;;;;;;;;;;5035248;28;20037;-57
2023/09/28 09:38:12;;;;;;;593.70;431.90;;;;;;;;;;5035709;28;20039;-55
2023/09/28 09:40:38;;;;;;;571.72;302.45;;;;;;;;;;5035749;28;20136;-56
2023/09/28 09:43:10;;;;;;;458.95;198.93;;;;;;;;;;5036639;28;20326;-56
2023/09/28 09:45:37;;;;;;;576.00;342.27;;;;;;;;;;4994770;28;1137132;-57
2023/09/28 09:48:02;;;;;;;654.88;413.17;;;;;;;;;;5036714;28;20044;-55
2023/09/28 09:50:31;;;;;;;516.15;220.00;;;;;;;;;;5038729;28;20472;-55
2023/09/28 09:52:57;;;;;;;504.02;202.27;;;;;;;;;;5041238;28;20017;-56
2023/09/28 09:55:22;;;;;;;702.33;460.17;;;;;;;;;;5037820;28;20032;-55
2023/09/28 09:57:48;;;;;;;456.58;201.50;;;;;;;;;;5022293;28;20466;-56
2023/09/28 10:00:18;;;;;;;472.60;240.02;;;;;;;;;;5038577;28;20763;-56
2023/09/28 10:02:44;;;;;;;580.53;342.48;;;;;;;;;;5040173;28;20029;-56
2023/09/28 10:05:12;;;;;;;587.83;414.42;;;;;;;;;;5040106;28;20028;-55
2023/09/28 10:07:37;;;;;;;610.40;396.17;;;;;;;;;;5022543;28;20144;-56
2023/09/28 10:10:03;;;;;;;560.47;281.05;;;;;;;;;;5040628;28;20111;-56
2023/09/28 10:12:29;;;;;;;667.88;269.75;;;;;;;;;;5039230;28;20040;-56
2023/09/28 10:14:56;;;;;;;556.05;391.73;;;;;;;;;;5040148;28;20053;-55
2023/09/28 10:17:24;;;;;;;749.30;406.58;;;;;;;;;;5037079;28;20032;-56
2023/09/28 10:19:50;;;;;;;562.58;380.65;;;;;;;;;;5039712;28;20033;-56
2023/09/28 10:22:15;;;;;;;542.63;307.77;;;;;;;;;;5038045;28;20098;-56
2023/09/28 10:24:40;;;;;;;694.77;483.33;;;;;;;;;;5038810;28;20403;-56
2023/09/28 10:27:07;;;;;;;624.83;452.67;;;;;;;;;;5039225;28;20120;-56
2023/09/28 10:29:32;;;;;;;742.35;372.38;;;;;;;;;;5037480;28;20024;-56
2023/09/28 10:31:58;;;;;;;562.13;367.27;;;;;;;;;;5039369;28;20029;-54
2023/09/28 10:34:24;;;;;;;668.33;319.90;;;;;;;;;;5039193;28;20263;-56
2023/09/28 10:37:05;;;;;;;549.85;363.27;;;;;;;;;;5038652;28;20592;-56
2023/09/28 10:39:31;;;;;;;628.58;367.77;;;;;;;;;;5038751;28;20025;-55
2023/09/28 10:42:03;;;;;;;591.47;504.13;;;;;;;;;;5041265;28;20041;-57
2023/09/28 10:44:30;;;;;;;746.17;466.35;;;;;;;;;;5038992;28;20021;-55
2023/09/28 10:46:56;;;;;;;549.47;229.20;;;;;;;;;;5039462;28;20061;-57
2023/09/28 10:49:22;;;;;;;456.63;143.60;;;;;;;;;;5038909;28;20069;-57
2023/09/28 10:51:48;;;;;;;602.55;444.38;;;;;;;;;;5040405;28;20102;-57
2023/09/28 10:54:14;;;;;;;551.47;421.00;;;;;;;;;;5040755;28;20156;-57
2023/09/28 10:56:39;;;;;;;623.33;463.73;;;;;;;;;;5039240;28;20061;-57
2023/09/28 10:59:06;;;;;;;675.58;455.08;;;;;;;;;;5038893;28;20340;-57
2023/09/28 11:01:31;;;;;;;660.55;368.65;;;;;;;;;;5038207;28;20484;-55
2023/09/28 11:03:57;;;;;;;587.13;472.80;;;;;;;;;;5041292;28;20550;-56
2023/09/28 11:06:23;;;;;;;655.60;447.92;;;;;;;;;;5040141;28;20068;-57
2023/09/28 11:08:48;;;;;;;628.67;458.90;;;;;;;;;;5039993;28;20039;-56
2023/09/28 11:11:14;;;;;;;468.88;294.13;;;;;;;;;;5039205;28;20282;-55
2023/09/28 11:13:40;;;;;;;611.95;389.48;;;;;;;;;;5038369;28;20120;-55
2023/09/28 11:16:05;;;;;;;553.22;402.20;;;;;;;;;;5039670;28;20116;-56
2023/09/28 11:18:31;;;;;;;682.55;331.67;;;;;;;;;;5039176;28;20025;-57
2023/09/28 11:20:58;;;;;;;613.08;310.27;;;;;;;;;;5039441;28;20029;-55
2023/09/28 11:23:23;;;;;;;660.65;396.70;;;;;;;;;;5039153;28;20508;-56
2023/09/28 11:25:49;;;;;;;563.63;340.20;;;;;;;;;;5039858;28;20060;-56
2023/09/28 11:28:14;;;;;;;531.90;339.70;;;;;;;;;;5040943;28;20431;-56
2023/09/28 11:30:39;;;;;;;533.40;268.23;;;;;;;;;;5038034;28;20626;-56
2023/09/28 11:33:05;;;;;;;578.40;413.97;;;;;;;;;;5039353;28;20623;-55
2023/09/28 11:35:31;;;;;;;711.78;334.30;;;;;;;;;;5037330;28;20061;-55
2023/09/28 11:38:00;;;;;;;594.10;349.65;;;;;;;;;;5038000;28;20025;-57
2023/09/28 11:40:26;;;;;;;724.92;355.05;;;;;;;;;;5036295;28;20075;-54
2023/09/28 11:42:53;;;;;;;539.47;215.13;;;;;;;;;;5037660;28;20119;-55
2023/09/28 11:45:25;;;;;;;570.75;278.13;;;;;;;;;;5036540;28;20032;-54
2023/09/28 11:47:50;;;;;;;556.75;346.38;;;;;;;;;;5038505;28;20426;-58
2023/09/28 11:50:17;;;;;;;686.37;478.47;;;;;;;;;;5038110;28;20016;-57
2023/09/28 11:52:43;;;;;;;545.72;306.02;;;;;;;;;;5037039;28;20509;-57
2023/09/28 11:55:12;;;;;;;559.63;262.10;;;;;;;;;;5037986;28;20017;-55
2023/09/28 11:57:37;;;;;;;720.95;333.15;;;;;;;;;;5035537;28;20037;-56
2023/09/28 12:00:03;;;;;;;498.50;127.00;;;;;;;;;;5038331;28;20303;-55
2023/09/28 12:02:28;;;;;;;708.08;393.50;;;;;;;;;;5035999;28;20765;-56
2023/09/28 12:04:54;;;;;;;668.13;397.33;;;;;;;;;;5038094;28;20310;-56
2023/09/28 12:07:19;;;;;;;468.65;162.68;;;;;;;;;;5038761;28;20029;-55
2023/09/28 12:09:44;;;;;;;512.92;232.77;;;;;;;;;;5037606;28;20137;-55
2023/09/28 12:12:10;;;;;;;498.90;188.10;;;;;;;;;;5037649;28;20044;-58
2023/09/28 12:14:35;;;;;;;565.17;115.33;;;;;;;;;;5035937;28;20338;-57
2023/09/28 12:17:00;;;;;;;630.72;423.15;;;;;;;;;;5037275;28;20060;-55
2023/09/28 12:19:25;;;;;;;796.53;518.47;;;;;;;;;;5035592;28;20386;-55
2023/09/28 12:21:51;;;;;;;500.67;194.73;;;;;;;;;;5037805;28;20395;-56
2023/09/28 12:24:16;;;;;;;478.25;155.52;;;;;;;;;;5038630;28;20398;-56
2023/09/28 12:26:42;;;;;;;568.53;172.63;;;;;;;;;;5036628;28;20112;-56
2023/09/28 12:29:07;;;;;;;591.07;340.40;;;;;;;;;;5038523;28;20256;-56
2023/09/28 12:31:33;;;;;;;772.30;500.40;;;;;;;;;;5035314;28;20272;-55
2023/09/28 12:33:58;;;;;;;579.88;250.15;;;;;;;;;;5037333;28;20044;-55
2023/09/28 12:36:24;;;;;;;466.43;119.57;;;;;;;;;;5035769;28;20071;-54
2023/09/28 12:38:51;;;;;;;538.03;193.07;;;;;;;;;;5038537;28;20768;-54
2023/09/28 12:41:16;;;;;;;622.05;348.90;;;;;;;;;;5036044;28;20853;-56
2023/09/28 12:43:42;;;;;;;466.52;112.03;;;;;;;;;;5023883;28;20045;-55
2023/09/28 12:46:09;;;;;;;468.80;130.20;;;;;;;;;;5037627;28;20055;-55
2023/09/28 12:48:34;;;;;;;701.58;178.07;;;;;;;;;;5035310;28;20264;-55
2023/09/28 12:50:59;;;;;;;535.83;247.82;;;;;;;;;;5036887;28;20403;-56
2023/09/28 12:53:26;;;;;;;575.97;281.03;;;;;;;;;;5036126;28;20090;-56
2023/09/28 12:55:52;;;;;;;489.20;114.13;;;;;;;;;;5019062;28;20383;-56
2023/09/28 12:58:18;;;;;;;527.67;314.48;;;;;;;;;;5038600;28;20391;-56
2023/09/28 13:00:44;;;;;;;410.50;106.93;;;;;;;;;;5036134;28;20037;-56
2023/09/28 13:03:10;;;;;;;480.20;135.38;;;;;;;;;;5037446;28;20359;-57
2023/09/28 13:05:39;;;;;;;683.58;357.42;;;;;;;;;;5036560;28;20569;-55
2023/09/28 13:08:15;;;;;;;472.08;154.65;;;;;;;;;;5038880;28;20104;-54
2023/09/28 13:10:40;;;;;;;741.80;437.15;;;;;;;;;;5037083;28;20041;-56
2023/09/28 13:13:06;;;;;;;509.85;147.00;;;;;;;;;;5038171;28;20029;-57
2023/09/28 13:15:32;;;;;;;564.38;113.78;;;;;;;;;;5035268;28;20029;-56
2023/09/28 13:17:59;;;;;;;606.25;370.35;;;;;;;;;;5037178;28;20049;-56
2023/09/28 13:20:29;;;;;;;673.15;498.73;;;;;;;;;;5035528;28;20048;-56
2023/09/28 13:22:57;;;;;;;515.45;129.93;;;;;;;;;;5036967;28;20142;-56
2023/09/28 13:25:25;;;;;;;442.05;139.70;;;;;;;;;;5040278;28;20554;-57
2023/09/28 13:27:51;;;;;;;506.30;213.40;;;;;;;;;;5041874;28;20513;-55
2023/09/28 13:30:19;;;;;;;539.30;269.70;;;;;;;;;;5041664;28;20296;-55
2023/09/28 13:32:45;;;;;;;379.70;174.45;;;;;;;;;;5039226;28;21180;-56
2023/09/28 13:35:11;;;;;;;300.55;84.10;;;;;;;;;;5040986;28;20016;-56
2023/09/28 13:37:37;;;;;;;737.83;444.85;;;;;;;;;;5039135;28;20521;-56
2023/09/28 13:40:03;;;;;;;583.72;401.27;;;;;;;;;;5041545;28;20013;-57
2023/09/28 13:42:28;;;;;;;574.53;299.25;;;;;;;;;;5039291;28;20025;-56
2023/09/28 13:44:53;;;;;;;443.60;150.67;;;;;;;;;;5041788;28;20020;-55
2023/09/28 13:47:19;;;;;;;583.17;439.87;;;;;;;;;;5040904;28;20029;-55